sensor_id;sensor_type;location;lat;lon;timestamp;P1;durP1;ratioP1;P2;durP2;ratioP2
32108;SDS011;18624;50.042;8.436;2023-11-19T00:01:01;11.63;;;8.52;;
32108;SDS011;18624;50.042;8.436;2023-11-19T00:03:27;13.80;;;10.70;;
32108;SDS011;18624;50.042;8.436;2023-11-19T00:05:54;16.90;;;11.63;;
32108;SDS011;18624;50.042;8.436;2023-11-19T00:08:34;13.75;;;11.05;;
32108;SDS011;18624;50.042;8.436;2023-11-19T00:11:00;15.18;;;11.52;;
32108;SDS011;18624;50.042;8.436;2023-11-19T00:13:27;13.48;;;10.55;;
32108;SDS011;18624;50.042;8.436;2023-11-19T00:15:53;18.55;;;13.00;;
32108;SDS011;18624;50.042;8.436;2023-11-19T00:18:20;13.88;;;10.52;;
32108;SDS011;18624;50.042;8.436;2023-11-19T00:20:47;18.20;;;12.20;;
32108;SDS011;18624;50.042;8.436;2023-11-19T00:23:13;15.85;;;11.25;;
32108;SDS011;18624;50.042;8.436;2023-11-19T00:25:39;16.42;;;11.98;;
32108;SDS011;18624;50.042;8.436;2023-11-19T00:28:06;18.80;;;11.48;;
32108;SDS011;18624;50.042;8.436;2023-11-19T00:30:32;15.07;;;10.82;;
32108;SDS011;18624;50.042;8.436;2023-11-19T00:32:59;15.15;;;10.77;;
32108;SDS011;18624;50.042;8.436;2023-11-19T00:35:25;14.88;;;10.18;;
32108;SDS011;18624;50.042;8.436;2023-11-19T00:37:52;14.43;;;11.27;;
32108;SDS011;18624;50.042;8.436;2023-11-19T00:40:20;16.13;;;10.73;;
32108;SDS011;18624;50.042;8.436;2023-11-19T00:42:49;15.00;;;10.90;;
32108;SDS011;18624;50.042;8.436;2023-11-19T00:45:15;12.45;;;9.57;;
32108;SDS011;18624;50.042;8.436;2023-11-19T00:47:42;14.60;;;11.20;;
32108;SDS011;18624;50.042;8.436;2023-11-19T00:50:09;15.25;;;10.82;;
32108;SDS011;18624;50.042;8.436;2023-11-19T00:52:36;15.95;;;11.82;;
32108;SDS011;18624;50.042;8.436;2023-11-19T00:55:04;18.90;;;12.32;;
32108;SDS011;18624;50.042;8.436;2023-11-19T00:57:31;16.48;;;12.60;;
32108;SDS011;18624;50.042;8.436;2023-11-19T00:59:59;18.38;;;14.30;;
32108;SDS011;18624;50.042;8.436;2023-11-19T01:02:25;23.02;;;16.40;;
32108;SDS011;18624;50.042;8.436;2023-11-19T01:04:52;23.08;;;17.20;;
32108;SDS011;18624;50.042;8.436;2023-11-19T01:07:19;21.85;;;15.07;;
32108;SDS011;18624;50.042;8.436;2023-11-19T01:09:48;21.60;;;15.73;;
32108;SDS011;18624;50.042;8.436;2023-11-19T01:12:14;19.70;;;14.82;;
32108;SDS011;18624;50.042;8.436;2023-11-19T01:14:41;18.00;;;14.23;;
32108;SDS011;18624;50.042;8.436;2023-11-19T01:17:07;18.63;;;13.90;;
32108;SDS011;18624;50.042;8.436;2023-11-19T01:19:35;21.10;;;14.48;;
32108;SDS011;18624;50.042;8.436;2023-11-19T01:22:01;18.27;;;14.60;;
32108;SDS011;18624;50.042;8.436;2023-11-19T01:24:28;17.50;;;13.68;;
32108;SDS011;18624;50.042;8.436;2023-11-19T01:26:55;19.73;;;15.13;;
32108;SDS011;18624;50.042;8.436;2023-11-19T01:29:21;20.13;;;14.65;;
32108;SDS011;18624;50.042;8.436;2023-11-19T01:31:48;19.05;;;14.45;;
32108;SDS011;18624;50.042;8.436;2023-11-19T01:34:14;17.73;;;13.52;;
32108;SDS011;18624;50.042;8.436;2023-11-19T01:36:41;18.60;;;14.05;;
32108;SDS011;18624;50.042;8.436;2023-11-19T01:39:08;22.08;;;13.95;;
32108;SDS011;18624;50.042;8.436;2023-11-19T01:41:34;18.67;;;13.05;;
32108;SDS011;18624;50.042;8.436;2023-11-19T01:44:02;20.60;;;14.88;;
32108;SDS011;18624;50.042;8.436;2023-11-19T01:46:29;16.92;;;13.13;;
32108;SDS011;18624;50.042;8.436;2023-11-19T01:48:58;19.05;;;15.18;;
32108;SDS011;18624;50.042;8.436;2023-11-19T01:51:26;17.00;;;13.02;;
32108;SDS011;18624;50.042;8.436;2023-11-19T01:53:53;18.13;;;14.27;;
32108;SDS011;18624;50.042;8.436;2023-11-19T01:56:21;19.95;;;14.90;;
32108;SDS011;18624;50.042;8.436;2023-11-19T01:58:49;18.55;;;14.32;;
32108;SDS011;18624;50.042;8.436;2023-11-19T02:01:16;17.75;;;13.30;;
32108;SDS011;18624;50.042;8.436;2023-11-19T02:03:43;19.73;;;14.65;;
32108;SDS011;18624;50.042;8.436;2023-11-19T02:06:09;16.52;;;12.45;;
32108;SDS011;18624;50.042;8.436;2023-11-19T02:08:38;19.02;;;12.98;;
32108;SDS011;18624;50.042;8.436;2023-11-19T02:11:05;16.55;;;12.75;;
32108;SDS011;18624;50.042;8.436;2023-11-19T02:13:33;17.23;;;12.57;;
32108;SDS011;18624;50.042;8.436;2023-11-19T02:16:02;19.25;;;14.27;;
32108;SDS011;18624;50.042;8.436;2023-11-19T02:18:30;17.63;;;13.15;;
32108;SDS011;18624;50.042;8.436;2023-11-19T02:20:59;19.77;;;15.80;;
32108;SDS011;18624;50.042;8.436;2023-11-19T02:23:26;20.40;;;14.05;;
32108;SDS011;18624;50.042;8.436;2023-11-19T02:28:54;19.85;;;13.93;;
32108;SDS011;18624;50.042;8.436;2023-11-19T02:31:21;18.27;;;13.48;;
32108;SDS011;18624;50.042;8.436;2023-11-19T02:33:49;18.27;;;13.68;;
32108;SDS011;18624;50.042;8.436;2023-11-19T02:36:16;19.23;;;14.60;;
32108;SDS011;18624;50.042;8.436;2023-11-19T02:38:43;19.10;;;13.63;;
32108;SDS011;18624;50.042;8.436;2023-11-19T02:41:09;14.80;;;11.90;;
32108;SDS011;18624;50.042;8.436;2023-11-19T02:43:36;17.75;;;12.13;;
32108;SDS011;18624;50.042;8.436;2023-11-19T02:46:04;18.83;;;13.77;;
32108;SDS011;18624;50.042;8.436;2023-11-19T02:48:36;19.02;;;12.63;;
32108;SDS011;18624;50.042;8.436;2023-11-19T02:51:05;19.77;;;12.55;;
32108;SDS011;18624;50.042;8.436;2023-11-19T02:53:35;18.70;;;13.75;;
32108;SDS011;18624;50.042;8.436;2023-11-19T02:56:03;16.80;;;12.40;;
32108;SDS011;18624;50.042;8.436;2023-11-19T02:58:44;16.15;;;12.13;;
32108;SDS011;18624;50.042;8.436;2023-11-19T03:01:12;21.80;;;13.77;;
32108;SDS011;18624;50.042;8.436;2023-11-19T03:03:49;17.27;;;12.30;;
32108;SDS011;18624;50.042;8.436;2023-11-19T03:06:21;15.00;;;11.52;;
32108;SDS011;18624;50.042;8.436;2023-11-19T03:08:48;17.08;;;12.00;;
32108;SDS011;18624;50.042;8.436;2023-11-19T03:11:14;22.65;;;15.77;;
32108;SDS011;18624;50.042;8.436;2023-11-19T03:13:41;23.27;;;16.40;;
32108;SDS011;18624;50.042;8.436;2023-11-19T03:16:08;18.20;;;13.20;;
32108;SDS011;18624;50.042;8.436;2023-11-19T03:18:34;24.73;;;15.13;;
32108;SDS011;18624;50.042;8.436;2023-11-19T03:21:01;22.38;;;16.17;;
32108;SDS011;18624;50.042;8.436;2023-11-19T03:23:27;22.92;;;15.95;;
32108;SDS011;18624;50.042;8.436;2023-11-19T03:25:54;25.27;;;17.63;;
32108;SDS011;18624;50.042;8.436;2023-11-19T03:28:20;21.05;;;14.75;;
32108;SDS011;18624;50.042;8.436;2023-11-19T03:30:47;19.00;;;14.63;;
32108;SDS011;18624;50.042;8.436;2023-11-19T03:33:14;19.73;;;14.63;;
32108;SDS011;18624;50.042;8.436;2023-11-19T03:35:41;20.98;;;15.20;;
32108;SDS011;18624;50.042;8.436;2023-11-19T03:38:07;19.88;;;14.48;;
32108;SDS011;18624;50.042;8.436;2023-11-19T03:40:34;19.70;;;14.35;;
32108;SDS011;18624;50.042;8.436;2023-11-19T03:43:01;17.67;;;13.48;;
32108;SDS011;18624;50.042;8.436;2023-11-19T03:45:27;22.35;;;15.30;;
32108;SDS011;18624;50.042;8.436;2023-11-19T03:47:54;18.02;;;13.35;;
32108;SDS011;18624;50.042;8.436;2023-11-19T03:50:20;20.52;;;14.88;;
32108;SDS011;18624;50.042;8.436;2023-11-19T03:52:47;19.13;;;13.57;;
32108;SDS011;18624;50.042;8.436;2023-11-19T03:55:14;19.92;;;14.43;;
32108;SDS011;18624;50.042;8.436;2023-11-19T03:57:41;17.35;;;13.23;;
32108;SDS011;18624;50.042;8.436;2023-11-19T04:00:07;19.27;;;13.10;;
32108;SDS011;18624;50.042;8.436;2023-11-19T04:02:40;17.05;;;11.85;;
32108;SDS011;18624;50.042;8.436;2023-11-19T04:05:07;17.10;;;12.15;;
32108;SDS011;18624;50.042;8.436;2023-11-19T04:07:34;19.52;;;14.77;;
32108;SDS011;18624;50.042;8.436;2023-11-19T04:10:00;18.77;;;13.52;;
32108;SDS011;18624;50.042;8.436;2023-11-19T04:12:27;13.65;;;10.27;;
32108;SDS011;18624;50.042;8.436;2023-11-19T04:14:53;15.88;;;12.43;;
32108;SDS011;18624;50.042;8.436;2023-11-19T04:17:22;14.57;;;10.23;;
32108;SDS011;18624;50.042;8.436;2023-11-19T04:19:49;16.77;;;11.50;;
32108;SDS011;18624;50.042;8.436;2023-11-19T04:22:16;13.38;;;9.90;;
32108;SDS011;18624;50.042;8.436;2023-11-19T04:24:43;13.73;;;10.15;;
32108;SDS011;18624;50.042;8.436;2023-11-19T04:27:12;14.93;;;10.07;;
32108;SDS011;18624;50.042;8.436;2023-11-19T04:29:39;14.38;;;10.60;;
32108;SDS011;18624;50.042;8.436;2023-11-19T04:32:05;11.75;;;8.88;;
32108;SDS011;18624;50.042;8.436;2023-11-19T04:34:32;12.00;;;9.18;;
32108;SDS011;18624;50.042;8.436;2023-11-19T04:36:58;14.15;;;10.10;;
32108;SDS011;18624;50.042;8.436;2023-11-19T04:39:38;15.48;;;10.77;;
32108;SDS011;18624;50.042;8.436;2023-11-19T04:42:05;12.23;;;9.55;;
32108;SDS011;18624;50.042;8.436;2023-11-19T04:44:32;12.95;;;9.10;;
32108;SDS011;18624;50.042;8.436;2023-11-19T04:46:59;14.32;;;10.57;;
32108;SDS011;18624;50.042;8.436;2023-11-19T04:49:25;12.55;;;9.27;;
32108;SDS011;18624;50.042;8.436;2023-11-19T04:51:53;14.13;;;9.90;;
32108;SDS011;18624;50.042;8.436;2023-11-19T04:54:20;11.95;;;8.95;;
32108;SDS011;18624;50.042;8.436;2023-11-19T04:56:46;12.52;;;8.80;;
32108;SDS011;18624;50.042;8.436;2023-11-19T04:59:13;12.07;;;8.48;;
32108;SDS011;18624;50.042;8.436;2023-11-19T05:01:40;11.57;;;8.45;;
32108;SDS011;18624;50.042;8.436;2023-11-19T05:04:07;9.70;;;8.13;;
32108;SDS011;18624;50.042;8.436;2023-11-19T05:06:34;10.40;;;8.00;;
32108;SDS011;18624;50.042;8.436;2023-11-19T05:09:01;12.70;;;9.82;;
32108;SDS011;18624;50.042;8.436;2023-11-19T05:11:32;11.63;;;7.93;;
32108;SDS011;18624;50.042;8.436;2023-11-19T05:14:00;13.07;;;9.23;;
32108;SDS011;18624;50.042;8.436;2023-11-19T05:16:30;18.30;;;12.60;;
32108;SDS011;18624;50.042;8.436;2023-11-19T05:18:57;12.85;;;9.40;;
32108;SDS011;18624;50.042;8.436;2023-11-19T05:21:23;12.82;;;9.02;;
32108;SDS011;18624;50.042;8.436;2023-11-19T05:23:50;11.85;;;8.50;;
32108;SDS011;18624;50.042;8.436;2023-11-19T05:26:17;11.73;;;8.65;;
32108;SDS011;18624;50.042;8.436;2023-11-19T05:28:45;12.38;;;8.70;;
32108;SDS011;18624;50.042;8.436;2023-11-19T05:31:11;12.18;;;9.45;;
32108;SDS011;18624;50.042;8.436;2023-11-19T05:33:38;12.27;;;8.60;;
32108;SDS011;18624;50.042;8.436;2023-11-19T05:36:05;11.52;;;8.57;;
32108;SDS011;18624;50.042;8.436;2023-11-19T05:38:35;11.90;;;9.05;;
32108;SDS011;18624;50.042;8.436;2023-11-19T05:41:02;13.90;;;10.27;;
32108;SDS011;18624;50.042;8.436;2023-11-19T05:43:29;11.57;;;8.45;;
32108;SDS011;18624;50.042;8.436;2023-11-19T05:45:55;12.63;;;9.00;;
32108;SDS011;18624;50.042;8.436;2023-11-19T05:48:22;10.40;;;7.78;;
32108;SDS011;18624;50.042;8.436;2023-11-19T05:50:49;12.23;;;8.52;;
32108;SDS011;18624;50.042;8.436;2023-11-19T05:53:15;10.90;;;7.45;;
32108;SDS011;18624;50.042;8.436;2023-11-19T05:55:42;10.32;;;7.40;;
32108;SDS011;18624;50.042;8.436;2023-11-19T05:58:24;8.43;;;6.97;;
32108;SDS011;18624;50.042;8.436;2023-11-19T06:00:55;14.00;;;8.00;;
32108;SDS011;18624;50.042;8.436;2023-11-19T06:03:22;13.75;;;8.55;;
32108;SDS011;18624;50.042;8.436;2023-11-19T06:05:50;13.52;;;8.35;;
32108;SDS011;18624;50.042;8.436;2023-11-19T06:08:16;14.88;;;9.52;;
32108;SDS011;18624;50.042;8.436;2023-11-19T06:10:43;14.65;;;8.70;;
32108;SDS011;18624;50.042;8.436;2023-11-19T06:13:13;9.40;;;6.32;;
32108;SDS011;18624;50.042;8.436;2023-11-19T06:15:41;9.43;;;7.43;;
32108;SDS011;18624;50.042;8.436;2023-11-19T06:18:08;9.52;;;7.18;;
32108;SDS011;18624;50.042;8.436;2023-11-19T06:20:36;9.77;;;7.18;;
32108;SDS011;18624;50.042;8.436;2023-11-19T06:23:05;10.30;;;7.88;;
32108;SDS011;18624;50.042;8.436;2023-11-19T06:25:32;9.82;;;7.10;;
32108;SDS011;18624;50.042;8.436;2023-11-19T06:27:59;10.00;;;7.40;;
32108;SDS011;18624;50.042;8.436;2023-11-19T06:30:25;9.15;;;6.55;;
32108;SDS011;18624;50.042;8.436;2023-11-19T06:32:54;11.13;;;7.95;;
32108;SDS011;18624;50.042;8.436;2023-11-19T06:35:20;8.25;;;6.25;;
32108;SDS011;18624;50.042;8.436;2023-11-19T06:37:47;9.55;;;6.68;;
32108;SDS011;18624;50.042;8.436;2023-11-19T06:40:13;8.80;;;6.15;;
32108;SDS011;18624;50.042;8.436;2023-11-19T06:42:41;9.10;;;6.90;;
32108;SDS011;18624;50.042;8.436;2023-11-19T06:45:08;10.38;;;7.47;;
32108;SDS011;18624;50.042;8.436;2023-11-19T06:47:35;9.13;;;7.47;;
32108;SDS011;18624;50.042;8.436;2023-11-19T06:50:02;12.48;;;7.55;;
32108;SDS011;18624;50.042;8.436;2023-11-19T06:52:33;8.27;;;6.25;;
32108;SDS011;18624;50.042;8.436;2023-11-19T06:55:00;8.80;;;6.50;;
32108;SDS011;18624;50.042;8.436;2023-11-19T06:57:29;8.88;;;6.50;;
32108;SDS011;18624;50.042;8.436;2023-11-19T06:59:58;10.30;;;7.05;;
32108;SDS011;18624;50.042;8.436;2023-11-19T07:02:25;10.43;;;7.13;;
32108;SDS011;18624;50.042;8.436;2023-11-19T07:04:53;12.77;;;8.23;;
32108;SDS011;18624;50.042;8.436;2023-11-19T07:07:21;9.65;;;7.07;;
32108;SDS011;18624;50.042;8.436;2023-11-19T07:09:47;12.57;;;8.77;;
32108;SDS011;18624;50.042;8.436;2023-11-19T07:12:14;10.07;;;7.10;;
32108;SDS011;18624;50.042;8.436;2023-11-19T07:14:40;12.05;;;8.52;;
32108;SDS011;18624;50.042;8.436;2023-11-19T07:17:08;11.00;;;7.82;;
32108;SDS011;18624;50.042;8.436;2023-11-19T07:19:37;11.40;;;9.05;;
32108;SDS011;18624;50.042;8.436;2023-11-19T07:22:05;11.38;;;8.95;;
32108;SDS011;18624;50.042;8.436;2023-11-19T07:24:32;12.35;;;9.07;;
32108;SDS011;18624;50.042;8.436;2023-11-19T07:26:59;13.65;;;9.02;;
32108;SDS011;18624;50.042;8.436;2023-11-19T07:29:26;12.20;;;7.40;;
32108;SDS011;18624;50.042;8.436;2023-11-19T07:31:55;12.77;;;8.55;;
32108;SDS011;18624;50.042;8.436;2023-11-19T07:34:23;12.00;;;7.72;;
32108;SDS011;18624;50.042;8.436;2023-11-19T07:36:50;15.88;;;8.60;;
32108;SDS011;18624;50.042;8.436;2023-11-19T07:39:17;12.77;;;7.85;;
32108;SDS011;18624;50.042;8.436;2023-11-19T07:41:44;12.73;;;8.85;;
32108;SDS011;18624;50.042;8.436;2023-11-19T07:44:10;16.23;;;10.27;;
32108;SDS011;18624;50.042;8.436;2023-11-19T07:46:37;16.30;;;9.82;;
32108;SDS011;18624;50.042;8.436;2023-11-19T07:49:04;12.52;;;9.10;;
32108;SDS011;18624;50.042;8.436;2023-11-19T07:51:31;12.32;;;8.90;;
32108;SDS011;18624;50.042;8.436;2023-11-19T07:53:57;13.13;;;8.90;;
32108;SDS011;18624;50.042;8.436;2023-11-19T07:56:24;12.23;;;7.82;;
32108;SDS011;18624;50.042;8.436;2023-11-19T07:58:51;10.93;;;8.02;;
32108;SDS011;18624;50.042;8.436;2023-11-19T08:01:18;12.13;;;8.68;;
32108;SDS011;18624;50.042;8.436;2023-11-19T08:03:45;11.73;;;7.60;;
32108;SDS011;18624;50.042;8.436;2023-11-19T08:06:14;11.73;;;8.57;;
32108;SDS011;18624;50.042;8.436;2023-11-19T08:08:41;13.55;;;9.80;;
32108;SDS011;18624;50.042;8.436;2023-11-19T08:11:07;14.10;;;8.38;;
32108;SDS011;18624;50.042;8.436;2023-11-19T08:13:34;14.85;;;10.48;;
32108;SDS011;18624;50.042;8.436;2023-11-19T08:16:00;12.05;;;9.13;;
32108;SDS011;18624;50.042;8.436;2023-11-19T08:18:27;11.85;;;8.40;;
32108;SDS011;18624;50.042;8.436;2023-11-19T08:20:54;11.75;;;8.98;;
32108;SDS011;18624;50.042;8.436;2023-11-19T08:23:22;12.52;;;9.18;;
32108;SDS011;18624;50.042;8.436;2023-11-19T08:25:50;13.65;;;9.15;;
32108;SDS011;18624;50.042;8.436;2023-11-19T08:28:17;16.20;;;10.27;;
32108;SDS011;18624;50.042;8.436;2023-11-19T08:30:43;14.43;;;10.52;;
32108;SDS011;18624;50.042;8.436;2023-11-19T08:33:13;17.38;;;10.68;;
32108;SDS011;18624;50.042;8.436;2023-11-19T08:35:41;26.05;;;14.95;;
32108;SDS011;18624;50.042;8.436;2023-11-19T08:38:07;23.50;;;15.15;;
32108;SDS011;18624;50.042;8.436;2023-11-19T08:40:34;18.08;;;12.20;;
32108;SDS011;18624;50.042;8.436;2023-11-19T08:43:00;20.50;;;13.70;;
32108;SDS011;18624;50.042;8.436;2023-11-19T08:45:27;18.95;;;12.98;;
32108;SDS011;18624;50.042;8.436;2023-11-19T08:47:53;18.60;;;12.57;;
32108;SDS011;18624;50.042;8.436;2023-11-19T08:50:20;18.45;;;12.40;;
32108;SDS011;18624;50.042;8.436;2023-11-19T08:52:46;18.13;;;12.65;;
32108;SDS011;18624;50.042;8.436;2023-11-19T08:55:13;22.15;;;15.20;;
32108;SDS011;18624;50.042;8.436;2023-11-19T08:57:39;14.57;;;10.48;;
32108;SDS011;18624;50.042;8.436;2023-11-19T09:00:06;28.88;;;19.75;;
32108;SDS011;18624;50.042;8.436;2023-11-19T09:02:35;24.35;;;15.70;;
32108;SDS011;18624;50.042;8.436;2023-11-19T09:05:04;18.40;;;13.68;;
32108;SDS011;18624;50.042;8.436;2023-11-19T09:07:33;21.27;;;15.38;;
32108;SDS011;18624;50.042;8.436;2023-11-19T09:10:00;25.80;;;16.40;;
32108;SDS011;18624;50.042;8.436;2023-11-19T09:12:26;24.25;;;16.25;;
32108;SDS011;18624;50.042;8.436;2023-11-19T09:14:53;20.60;;;12.95;;
32108;SDS011;18624;50.042;8.436;2023-11-19T09:17:20;22.65;;;16.55;;
32108;SDS011;18624;50.042;8.436;2023-11-19T09:19:46;16.92;;;12.43;;
32108;SDS011;18624;50.042;8.436;2023-11-19T09:22:13;14.57;;;10.23;;
32108;SDS011;18624;50.042;8.436;2023-11-19T09:24:39;16.80;;;11.85;;
32108;SDS011;18624;50.042;8.436;2023-11-19T09:27:06;16.58;;;12.27;;
32108;SDS011;18624;50.042;8.436;2023-11-19T09:29:32;14.55;;;10.07;;
32108;SDS011;18624;50.042;8.436;2023-11-19T09:31:59;18.83;;;12.75;;
32108;SDS011;18624;50.042;8.436;2023-11-19T09:34:26;14.23;;;10.25;;
32108;SDS011;18624;50.042;8.436;2023-11-19T09:36:52;17.30;;;12.20;;
32108;SDS011;18624;50.042;8.436;2023-11-19T09:39:19;16.67;;;10.38;;
32108;SDS011;18624;50.042;8.436;2023-11-19T09:41:46;18.50;;;12.15;;
32108;SDS011;18624;50.042;8.436;2023-11-19T09:44:13;18.17;;;10.70;;
32108;SDS011;18624;50.042;8.436;2023-11-19T09:46:41;15.05;;;10.48;;
32108;SDS011;18624;50.042;8.436;2023-11-19T09:49:08;17.40;;;12.10;;
32108;SDS011;18624;50.042;8.436;2023-11-19T09:51:36;13.75;;;11.00;;
32108;SDS011;18624;50.042;8.436;2023-11-19T09:54:03;14.70;;;10.63;;
32108;SDS011;18624;50.042;8.436;2023-11-19T09:56:29;15.25;;;10.10;;
32108;SDS011;18624;50.042;8.436;2023-11-19T09:58:58;14.98;;;10.50;;
32108;SDS011;18624;50.042;8.436;2023-11-19T10:01:25;14.07;;;9.35;;
32108;SDS011;18624;50.042;8.436;2023-11-19T10:03:55;12.48;;;8.82;;
32108;SDS011;18624;50.042;8.436;2023-11-19T10:06:22;13.38;;;9.27;;
32108;SDS011;18624;50.042;8.436;2023-11-19T10:08:51;12.40;;;8.00;;
32108;SDS011;18624;50.042;8.436;2023-11-19T10:11:17;10.80;;;6.40;;
32108;SDS011;18624;50.042;8.436;2023-11-19T10:13:44;10.77;;;8.40;;
32108;SDS011;18624;50.042;8.436;2023-11-19T10:16:14;14.75;;;8.63;;
32108;SDS011;18624;50.042;8.436;2023-11-19T10:18:47;13.77;;;7.43;;
32108;SDS011;18624;50.042;8.436;2023-11-19T10:21:19;14.50;;;7.28;;
32108;SDS011;18624;50.042;8.436;2023-11-19T10:23:49;13.48;;;7.70;;
32108;SDS011;18624;50.042;8.436;2023-11-19T10:26:18;14.27;;;6.57;;
32108;SDS011;18624;50.042;8.436;2023-11-19T10:28:45;12.55;;;6.45;;
32108;SDS011;18624;50.042;8.436;2023-11-19T10:31:13;12.52;;;5.80;;
32108;SDS011;18624;50.042;8.436;2023-11-19T10:33:40;15.05;;;6.13;;
32108;SDS011;18624;50.042;8.436;2023-11-19T10:36:07;16.27;;;6.90;;
32108;SDS011;18624;50.042;8.436;2023-11-19T10:38:34;20.00;;;6.18;;
32108;SDS011;18624;50.042;8.436;2023-11-19T10:41:00;13.23;;;6.05;;
32108;SDS011;18624;50.042;8.436;2023-11-19T10:43:27;13.82;;;6.07;;
32108;SDS011;18624;50.042;8.436;2023-11-19T10:45:54;15.60;;;5.82;;
32108;SDS011;18624;50.042;8.436;2023-11-19T10:48:34;15.55;;;6.80;;
32108;SDS011;18624;50.042;8.436;2023-11-19T10:51:01;16.55;;;6.53;;
32108;SDS011;18624;50.042;8.436;2023-11-19T10:53:32;16.15;;;5.82;;
32108;SDS011;18624;50.042;8.436;2023-11-19T10:56:02;12.95;;;5.35;;
32108;SDS011;18624;50.042;8.436;2023-11-19T10:58:32;14.73;;;6.75;;
32108;SDS011;18624;50.042;8.436;2023-11-19T11:01:01;17.05;;;6.97;;
32108;SDS011;18624;50.042;8.436;2023-11-19T11:03:35;16.15;;;6.25;;
32108;SDS011;18624;50.042;8.436;2023-11-19T11:06:06;18.88;;;7.68;;
32108;SDS011;18624;50.042;8.436;2023-11-19T11:08:33;17.17;;;6.57;;
32108;SDS011;18624;50.042;8.436;2023-11-19T11:11:03;17.20;;;6.65;;
32108;SDS011;18624;50.042;8.436;2023-11-19T11:13:32;15.93;;;6.10;;
32108;SDS011;18624;50.042;8.436;2023-11-19T11:16:00;15.02;;;6.18;;
32108;SDS011;18624;50.042;8.436;2023-11-19T11:18:27;15.05;;;5.88;;
32108;SDS011;18624;50.042;8.436;2023-11-19T11:21:04;15.23;;;5.45;;
32108;SDS011;18624;50.042;8.436;2023-11-19T11:26:24;15.23;;;6.47;;
32108;SDS011;18624;50.042;8.436;2023-11-19T11:35:12;21.40;;;7.13;;
32108;SDS011;18624;50.042;8.436;2023-11-19T11:37:49;17.98;;;6.68;;
32108;SDS011;18624;50.042;8.436;2023-11-19T11:40:19;18.55;;;7.22;;
32108;SDS011;18624;50.042;8.436;2023-11-19T11:42:45;13.70;;;5.68;;
32108;SDS011;18624;50.042;8.436;2023-11-19T11:45:13;15.68;;;6.05;;
32108;SDS011;18624;50.042;8.436;2023-11-19T11:50:19;12.07;;;5.68;;
32108;SDS011;18624;50.042;8.436;2023-11-19T11:55:28;16.92;;;6.07;;
32108;SDS011;18624;50.042;8.436;2023-11-19T11:58:00;14.27;;;5.50;;
32108;SDS011;18624;50.042;8.436;2023-11-19T12:00:27;20.15;;;6.05;;
32108;SDS011;18624;50.042;8.436;2023-11-19T12:02:57;13.70;;;6.13;;
32108;SDS011;18624;50.042;8.436;2023-11-19T12:05:25;18.20;;;7.05;;
32108;SDS011;18624;50.042;8.436;2023-11-19T12:08:05;16.60;;;7.40;;
32108;SDS011;18624;50.042;8.436;2023-11-19T12:10:37;13.18;;;6.00;;
32108;SDS011;18624;50.042;8.436;2023-11-19T12:13:10;16.30;;;6.43;;
32108;SDS011;18624;50.042;8.436;2023-11-19T12:18:27;15.25;;;5.85;;
32108;SDS011;18624;50.042;8.436;2023-11-19T12:20:57;13.45;;;5.80;;
32108;SDS011;18624;50.042;8.436;2023-11-19T12:23:26;18.15;;;7.10;;
32108;SDS011;18624;50.042;8.436;2023-11-19T12:25:55;14.27;;;6.53;;
32108;SDS011;18624;50.042;8.436;2023-11-19T12:28:22;15.43;;;5.70;;
32108;SDS011;18624;50.042;8.436;2023-11-19T12:30:50;10.00;;;5.00;;
32108;SDS011;18624;50.042;8.436;2023-11-19T12:33:17;12.73;;;5.72;;
32108;SDS011;18624;50.042;8.436;2023-11-19T12:35:44;10.23;;;4.55;;
32108;SDS011;18624;50.042;8.436;2023-11-19T12:38:21;16.05;;;6.70;;
32108;SDS011;18624;50.042;8.436;2023-11-19T12:41:07;16.45;;;6.13;;
32108;SDS011;18624;50.042;8.436;2023-11-19T12:43:37;12.20;;;5.88;;
32108;SDS011;18624;50.042;8.436;2023-11-19T12:46:20;10.80;;;5.72;;
32108;SDS011;18624;50.042;8.436;2023-11-19T12:48:48;13.10;;;6.10;;
32108;SDS011;18624;50.042;8.436;2023-11-19T12:51:15;10.20;;;5.63;;
32108;SDS011;18624;50.042;8.436;2023-11-19T12:53:52;9.02;;;5.43;;
32108;SDS011;18624;50.042;8.436;2023-11-19T12:56:21;14.10;;;7.55;;
32108;SDS011;18624;50.042;8.436;2023-11-19T12:58:48;15.32;;;6.15;;
32108;SDS011;18624;50.042;8.436;2023-11-19T13:01:16;10.15;;;5.07;;
32108;SDS011;18624;50.042;8.436;2023-11-19T13:03:45;10.27;;;4.90;;
32108;SDS011;18624;50.042;8.436;2023-11-19T13:06:12;11.93;;;5.40;;
32108;SDS011;18624;50.042;8.436;2023-11-19T13:08:44;11.25;;;5.68;;
32108;SDS011;18624;50.042;8.436;2023-11-19T13:11:12;12.77;;;6.07;;
32108;SDS011;18624;50.042;8.436;2023-11-19T13:14:01;11.02;;;6.10;;
32108;SDS011;18624;50.042;8.436;2023-11-19T13:16:27;14.32;;;6.43;;
32108;SDS011;18624;50.042;8.436;2023-11-19T13:18:55;11.50;;;5.38;;
32108;SDS011;18624;50.042;8.436;2023-11-19T13:21:21;12.95;;;5.60;;
32108;SDS011;18624;50.042;8.436;2023-11-19T13:23:48;9.43;;;5.10;;
32108;SDS011;18624;50.042;8.436;2023-11-19T13:26:14;13.02;;;5.07;;
32108;SDS011;18624;50.042;8.436;2023-11-19T13:28:41;14.90;;;7.10;;
32108;SDS011;18624;50.042;8.436;2023-11-19T13:31:08;13.77;;;7.38;;
32108;SDS011;18624;50.042;8.436;2023-11-19T13:33:34;12.77;;;5.75;;
32108;SDS011;18624;50.042;8.436;2023-11-19T13:36:03;15.20;;;6.72;;
32108;SDS011;18624;50.042;8.436;2023-11-19T13:38:32;14.27;;;5.93;;
32108;SDS011;18624;50.042;8.436;2023-11-19T13:41:05;13.70;;;5.70;;
32108;SDS011;18624;50.042;8.436;2023-11-19T13:43:31;10.63;;;5.28;;
32108;SDS011;18624;50.042;8.436;2023-11-19T13:45:58;11.70;;;6.18;;
32108;SDS011;18624;50.042;8.436;2023-11-19T13:48:25;10.77;;;4.88;;
32108;SDS011;18624;50.042;8.436;2023-11-19T13:50:53;12.20;;;5.90;;
32108;SDS011;18624;50.042;8.436;2023-11-19T13:53:20;14.27;;;6.32;;
32108;SDS011;18624;50.042;8.436;2023-11-19T13:55:46;17.58;;;6.80;;
32108;SDS011;18624;50.042;8.436;2023-11-19T13:58:13;10.75;;;5.30;;
32108;SDS011;18624;50.042;8.436;2023-11-19T14:00:40;12.80;;;5.50;;
32108;SDS011;18624;50.042;8.436;2023-11-19T14:03:08;10.43;;;5.85;;
32108;SDS011;18624;50.042;8.436;2023-11-19T14:05:39;14.68;;;5.03;;
32108;SDS011;18624;50.042;8.436;2023-11-19T14:08:07;10.35;;;5.72;;
32108;SDS011;18624;50.042;8.436;2023-11-19T14:10:50;14.40;;;7.55;;
32108;SDS011;18624;50.042;8.436;2023-11-19T14:13:17;13.00;;;4.85;;
32108;SDS011;18624;50.042;8.436;2023-11-19T14:15:43;15.13;;;6.22;;
32108;SDS011;18624;50.042;8.436;2023-11-19T14:18:13;12.38;;;6.40;;
32108;SDS011;18624;50.042;8.436;2023-11-19T14:20:40;11.52;;;6.22;;
32108;SDS011;18624;50.042;8.436;2023-11-19T14:23:06;10.68;;;5.50;;
32108;SDS011;18624;50.042;8.436;2023-11-19T14:25:32;13.93;;;6.03;;
32108;SDS011;18624;50.042;8.436;2023-11-19T14:28:00;14.43;;;6.45;;
32108;SDS011;18624;50.042;8.436;2023-11-19T14:30:29;11.90;;;5.85;;
32108;SDS011;18624;50.042;8.436;2023-11-19T14:32:55;15.30;;;8.00;;
32108;SDS011;18624;50.042;8.436;2023-11-19T14:35:21;12.60;;;5.28;;
32108;SDS011;18624;50.042;8.436;2023-11-19T14:37:48;18.38;;;6.38;;
32108;SDS011;18624;50.042;8.436;2023-11-19T14:40:15;11.75;;;5.70;;
32108;SDS011;18624;50.042;8.436;2023-11-19T14:42:41;15.57;;;6.47;;
32108;SDS011;18624;50.042;8.436;2023-11-19T14:45:09;12.05;;;5.38;;
32108;SDS011;18624;50.042;8.436;2023-11-19T14:47:38;14.27;;;6.22;;
32108;SDS011;18624;50.042;8.436;2023-11-19T14:50:05;11.60;;;5.18;;
32108;SDS011;18624;50.042;8.436;2023-11-19T14:52:34;11.32;;;5.45;;
32108;SDS011;18624;50.042;8.436;2023-11-19T14:55:01;17.08;;;6.70;;